Time;durP1;ratioP1;P1;durP2;ratioP2;P2;SDS_P1;SDS_P2;PMS_P1;PMS_P2;Temp;Humidity;BMP_temperature;BMP_pressure;BME280_temperature;BME280_humidity;BME280_pressure;Samples;Min_cycle;Max_cycle;Signal;HPM_P1;HPM_P2
2022/10/05 00:00:21;;;;;;;8.93;6.93;;;;;;;19.10;54.11;101655.78;5051682;28;20065;-68
2022/10/05 00:02:51;;;;;;;11.13;7.07;;;;;;;19.09;54.03;101645.91;5051277;28;20554;-67
2022/10/05 00:05:30;;;;;;;11.15;8.45;;;;;;;19.06;54.22;101649.78;5051787;28;20037;-68
2022/10/05 00:08:13;;;;;;;11.77;8.38;;;;;;;19.05;54.41;101645.34;5049416;28;20487;-68
2022/10/05 00:10:41;;;;;;;12.65;8.40;;;;;;;19.04;54.04;101643.63;5051870;28;20582;-68
2022/10/05 00:13:18;;;;;;;12.18;8.35;;;;;;;19.04;54.52;101649.91;5051407;28;20048;-68
2022/10/05 00:15:47;;;;;;;10.00;8.07;;;;;;;19.04;54.01;101644.47;5051761;28;20488;-68
2022/10/05 00:18:19;;;;;;;10.13;7.80;;;;;;;19.05;54.62;101645.34;5052046;28;20341;-68
2022/10/05 00:20:47;;;;;;;11.20;7.68;;;;;;;19.05;54.31;101638.03;5051860;28;20052;-68
2022/10/05 00:23:28;;;;;;;11.48;8.07;;;;;;;19.04;54.65;101639.03;5051454;28;20106;-68
2022/10/05 00:26:08;;;;;;;10.20;8.32;;;;;;;19.05;54.67;101632.56;5050407;28;20102;-68
2022/10/05 00:28:34;;;;;;;12.32;8.38;;;;;;;19.05;54.64;101632.56;5051361;28;20592;-67
2022/10/05 00:31:01;;;;;;;11.50;8.10;;;;;;;19.05;54.28;101624.41;5050977;28;20048;-68
2022/10/05 00:33:28;;;;;;;10.80;8.35;;;;;;;19.05;54.55;101623.56;5050914;28;20037;-68
2022/10/05 00:35:54;;;;;;;12.10;8.15;;;;;;;19.04;54.68;101625.41;5051220;28;20461;-68
2022/10/05 00:38:21;;;;;;;11.57;7.90;;;;;;;19.05;54.30;101629.84;5051555;28;20498;-68
2022/10/05 00:41:01;;;;;;;12.82;8.60;;;;;;;19.04;54.68;101625.41;5051035;28;20045;-68
2022/10/05 00:43:56;;;;;;;12.40;8.65;;;;;;;19.03;54.38;101625.56;5050943;28;20037;-68
2022/10/05 00:46:37;;;;;;;8.95;6.88;;;;;;;19.04;54.62;101630.00;5031093;28;20065;-68
2022/10/05 00:49:49;;;;;;;11.40;8.23;;;;;;;19.03;54.82;101618.25;5036470;28;20044;-67
2022/10/05 00:52:44;;;;;;;13.05;7.80;;;;;;;19.04;54.59;101622.69;5034059;28;20119;-67
2022/10/05 00:55:31;;;;;;;10.93;8.45;;;;;;;19.04;54.69;101619.13;5049469;28;20103;-67
2022/10/05 00:58:07;;;;;;;12.73;7.93;;;;;;;19.04;54.42;101630.84;5050970;28;20052;-67
2022/10/05 01:00:41;;;;;;;10.88;8.13;;;;;;;19.01;54.75;101624.84;5050715;28;20141;-68
2022/10/05 01:03:19;;;;;;;14.07;8.35;;;;;;;18.98;54.58;101623.28;5050702;28;20124;-67
2022/10/05 01:06:05;;;;;;;11.15;8.27;;;;;;;18.96;54.94;101628.00;5049840;28;20048;-67
2022/10/05 01:08:49;;;;;;;11.00;8.25;;;;;;;18.96;54.74;101622.56;5049663;28;20052;-68
2022/10/05 01:11:29;;;;;;;11.50;8.27;;;;;;;18.97;55.00;101615.25;5049533;28;20047;-68
2022/10/05 01:14:01;;;;;;;10.77;8.18;;;;;;;18.96;55.01;101622.56;5050759;28;20299;-68
2022/10/05 01:16:52;;;;;;;11.52;8.07;;;;;;;18.96;55.00;101616.25;5050441;28;20139;-67
2022/10/05 01:19:58;;;;;;;10.95;8.65;;;;;;;18.96;54.76;101614.38;5050925;28;20499;-67
2022/10/05 01:22:39;;;;;;;11.15;9.18;;;;;;;18.96;54.80;101611.66;5050295;28;20044;-67
2022/10/05 01:25:27;;;;;;;10.27;8.10;;;;;;;18.94;54.92;101599.22;5050458;28;20099;-69
2022/10/05 01:28:32;;;;;;;11.93;8.18;;;;;;;18.90;55.11;101592.34;5049353;28;20461;-68
2022/10/05 01:31:05;;;;;;;10.70;8.00;;;;;;;18.92;55.21;101595.78;5018408;28;20071;-68
2022/10/05 01:33:56;;;;;;;13.23;8.65;;;;;;;18.89;55.17;101591.47;5050349;28;20515;-68
2022/10/05 01:36:45;;;;;;;11.38;7.93;;;;;;;18.87;55.28;101589.91;5050568;28;20487;-67
2022/10/05 01:39:16;;;;;;;12.98;8.40;;;;;;;18.85;54.89;101587.31;5050136;28;20041;-68
2022/10/05 01:41:52;;;;;;;12.77;8.57;;;;;;;18.83;55.33;101583.03;5050495;28;20095;-67
2022/10/05 01:44:31;;;;;;;12.88;8.60;;;;;;;18.80;55.18;101589.63;5050360;28;20037;-67
2022/10/05 01:47:24;;;;;;;14.05;8.52;;;;;;;18.79;55.27;101577.03;5050526;28;20033;-67
2022/10/05 01:50:01;;;;;;;13.43;8.95;;;;;;;18.79;55.57;101579.75;5049759;28;20044;-67
2022/10/05 01:52:50;;;;;;;11.93;8.88;;;;;;;18.80;55.47;101572.44;5049159;28;20044;-68
2022/10/05 01:55:51;;;;;;;12.57;8.70;;;;;;;18.78;55.29;101577.16;5050351;28;20083;-67
2022/10/05 01:58:54;;;;;;;10.43;8.98;;;;;;;18.79;55.38;101577.03;5029576;28;20137;-68
2022/10/05 02:01:33;;;;;;;11.73;8.32;;;;;;;18.80;55.34;101578.75;5029342;28;20396;-67
2022/10/05 02:04:18;;;;;;;10.40;8.38;;;;;;;18.83;55.39;101573.00;5041772;28;20065;-67
2022/10/05 02:07:14;;;;;;;10.50;8.32;;;;;;;18.86;55.65;101572.72;5065484;28;20068;-68
2022/10/05 02:09:50;;;;;;;13.35;8.13;;;;;;;18.87;55.42;101562.69;5052722;28;20044;-68
2022/10/05 02:12:21;;;;;;;10.57;7.70;;;;;;;18.87;55.67;101559.97;5053764;28;20079;-67
2022/10/05 02:14:54;;;;;;;10.02;8.45;;;;;;;18.85;55.54;101553.81;5052693;28;20049;-66
2022/10/05 02:17:30;;;;;;;11.48;7.75;;;;;;;18.82;55.32;101546.78;5053492;28;20539;-67
2022/10/05 02:20:00;;;;;;;11.10;7.78;;;;;;;18.82;55.45;101549.50;5052485;28;20037;-67
2022/10/05 02:22:37;;;;;;;12.90;8.25;;;;;;;18.81;55.67;101541.50;5052352;28;20049;-67
2022/10/05 02:25:12;;;;;;;11.75;8.43;;;;;;;18.80;55.49;101540.63;5052372;28;20041;-67
2022/10/05 02:28:23;;;;;;;10.88;7.93;;;;;;;18.79;55.85;101536.19;5052090;28;20037;-67
2022/10/05 02:30:55;;;;;;;10.00;7.75;;;;;;;18.79;55.55;101541.66;5018188;28;20090;-68
2022/10/05 02:33:27;;;;;;;9.07;8.02;;;;;;;18.79;55.59;101543.50;5052031;28;20325;-67
2022/10/05 02:36:04;;;;;;;9.63;8.23;;;;;;;18.79;55.51;101538.06;5052096;28;20041;-67
2022/10/05 02:38:58;;;;;;;14.45;8.90;;;;;;;18.79;55.84;101536.19;5053219;28;20056;-68
2022/10/05 02:42:02;;;;;;;12.63;8.23;;;;;;;18.78;56.00;101534.47;5051940;28;20107;-68
2022/10/05 02:44:56;;;;;;;9.07;7.88;;;;;;;18.77;55.91;101519.16;5052026;28;20052;-68
2022/10/05 02:47:43;;;;;;;11.52;8.05;;;;;;;18.76;56.04;101522.03;5053459;28;20037;-68
2022/10/05 02:50:26;;;;;;;13.20;7.88;;;;;;;18.75;55.87;101515.72;5052160;28;20073;-68
2022/10/05 02:53:08;;;;;;;16.88;8.07;;;;;;;18.75;56.01;101515.72;5052841;28;20052;-69
2022/10/05 02:55:44;;;;;;;12.65;8.13;;;;;;;18.75;55.79;101504.84;5052768;28;20053;-68
2022/10/05 02:58:15;;;;;;;12.38;8.63;;;;;;;18.77;55.79;101516.44;5052166;28;20453;-68
2022/10/05 03:00:49;;;;;;;10.95;8.35;;;;;;;18.76;55.95;101505.69;5051550;28;20045;-68
2022/10/05 03:03:28;;;;;;;16.45;8.38;;;;;;;18.75;56.00;101503.97;5053294;28;20184;-68
2022/10/05 03:06:05;;;;;;;11.15;8.15;;;;;;;18.75;55.96;101504.84;5047086;28;20100;-69
2022/10/05 03:09:06;;;;;;;11.93;8.38;;;;;;;18.75;55.86;101493.97;5053042;28;20040;-69
2022/10/05 03:11:54;;;;;;;9.93;8.10;;;;;;;18.76;55.67;101490.22;5052728;28;20071;-68
2022/10/05 03:14:38;;;;;;;11.48;8.13;;;;;;;18.74;55.84;101489.53;5052834;28;20029;-68
2022/10/05 03:17:26;;;;;;;12.13;8.27;;;;;;;18.74;55.76;101484.06;5051313;28;20095;-68
2022/10/05 03:20:03;;;;;;;10.52;8.55;;;;;;;18.71;55.93;101478.94;5050789;28;20036;-67
2022/10/05 03:22:48;;;;;;;11.77;8.25;;;;;;;18.70;55.91;101477.22;5050977;28;20049;-68
2022/10/05 03:25:18;;;;;;;;;;;;;;;18.68;55.95;101484.66;5051752;28;20086;-69
2022/10/05 03:28:23;;;;;;;9.50;7.55;;;;;;;18.68;56.08;101482.81;5051466;28;20331;-68
2022/10/05 03:31:03;;;;;;;11.03;7.97;;;;;;;18.64;55.90;101481.38;5037531;28;20489;-68
2022/10/05 03:34:05;;;;;;;10.48;7.72;;;;;;;18.61;55.80;101492.56;5050982;28;20299;-68
2022/10/05 03:36:54;;;;;;;10.77;8.00;;;;;;;18.60;56.16;101496.25;5051018;28;20037;-68
2022/10/05 03:39:35;;;;;;;12.13;8.05;;;;;;;18.60;55.81;101490.81;5051061;28;20037;-68
2022/10/05 03:42:24;;;;;;;10.60;8.60;;;;;;;18.58;56.17;101489.19;5050492;28;20591;-67
2022/10/05 03:44:58;;;;;;;10.32;7.90;;;;;;;18.60;56.28;101495.38;5050636;28;20045;-67
2022/10/05 03:47:28;;;;;;;11.17;8.57;;;;;;;18.61;56.30;101492.56;5052040;28;20437;-67
2022/10/05 03:50:16;;;;;;;12.48;7.72;;;;;;;18.60;56.34;101488.09;5050954;28;20041;-67
2022/10/05 03:53:05;;;;;;;11.63;8.32;;;;;;;18.63;56.35;101489.69;5050819;28;20049;-67
2022/10/05 03:55:51;;;;;;;10.48;7.93;;;;;;;18.65;56.11;101487.69;5047640;28;20063;-68
2022/10/05 03:58:29;;;;;;;12.02;8.02;;;;;;;18.66;56.07;101489.41;5050555;28;20060;-68
2022/10/05 04:01:01;;;;;;;11.13;7.97;;;;;;;18.66;56.14;101487.53;5030377;28;20046;-67
2022/10/05 04:03:36;;;;;;;9.88;7.97;;;;;;;18.67;56.08;101481.09;5032325;28;20507;-67
2022/10/05 04:06:12;;;;;;;9.85;8.20;;;;;;;18.65;56.02;101476.78;5050118;28;20079;-68
2022/10/05 04:09:06;;;;;;;10.50;7.18;;;;;;;18.62;56.46;101474.38;5050236;28;20037;-67
2022/10/05 04:11:45;;;;;;;12.00;7.55;;;;;;;18.62;56.48;101483.38;5049724;28;20132;-67
2022/10/05 04:14:18;;;;;;;11.00;8.23;;;;;;;18.63;56.29;101486.97;5050046;28;20494;-68
2022/10/05 04:16:50;;;;;;;11.48;8.55;;;;;;;18.61;56.05;101473.50;5050473;28;20056;-67
2022/10/05 04:19:25;;;;;;;11.45;8.18;;;;;;;18.60;56.44;101485.34;5051090;28;20086;-68
2022/10/05 04:22:11;;;;;;;11.50;7.68;;;;;;;18.59;56.32;101478.19;5051364;28;20040;-67
2022/10/05 04:25:08;;;;;;;10.68;8.75;;;;;;;18.61;56.32;101481.66;5049819;28;20045;-68
2022/10/05 04:27:44;;;;;;;11.40;8.10;;;;;;;18.63;56.63;101492.41;5050056;28;20049;-67
2022/10/05 04:30:15;;;;;;;12.05;8.27;;;;;;;18.63;56.50;101486.97;5049925;28;20047;-68
2022/10/05 04:32:44;;;;;;;11.63;8.30;;;;;;;18.61;56.56;101483.50;5049187;28;20076;-68
2022/10/05 04:35:14;;;;;;;14.27;8.65;;;;;;;18.60;56.43;101487.22;5037743;28;20049;-67
2022/10/05 04:38:01;;;;;;;13.80;8.70;;;;;;;18.58;56.76;101484.66;5050243;28;20613;-67
2022/10/05 04:40:40;;;;;;;13.18;8.80;;;;;;;18.59;56.66;101477.34;5049538;28;20049;-67
2022/10/05 04:43:17;;;;;;;10.05;7.47;;;;;;;18.57;56.63;101473.88;5035143;28;20047;-68
2022/10/05 04:46:08;;;;;;;10.52;8.45;;;;;;;18.57;56.80;101466.56;5049273;28;20099;-68
2022/10/05 04:48:56;;;;;;;10.63;7.93;;;;;;;18.55;56.70;101474.03;5050031;28;20041;-68
2022/10/05 04:51:45;;;;;;;10.55;8.20;;;;;;;18.54;56.77;101474.16;5049817;28;20147;-68
2022/10/05 04:54:36;;;;;;;11.95;7.82;;;;;;;18.52;56.80;101473.47;5049654;28;20072;-68
2022/10/05 04:57:09;;;;;;;10.30;7.43;;;;;;;18.54;56.69;101475.03;5033954;28;20037;-68
2022/10/05 05:00:04;;;;;;;10.27;7.25;;;;;;;18.55;56.91;101468.59;5049864;28;20094;-68
2022/10/05 05:02:46;;;;;;;10.35;7.72;;;;;;;18.55;56.43;101462.28;5046961;28;20080;-67
2022/10/05 05:05:30;;;;;;;16.23;8.30;;;;;;;18.52;56.64;101468.00;5049747;28;20111;-67
2022/10/05 05:08:30;;;;;;;12.70;8.18;;;;;;;18.49;56.55;101458.28;5049085;28;20048;-67
2022/10/05 05:11:24;;;;;;;9.23;7.75;;;;;;;18.48;56.66;101462.00;5049460;28;20045;-68
2022/10/05 05:14:10;;;;;;;12.68;7.78;;;;;;;18.46;56.83;101464.00;5049306;28;20392;-68
2022/10/05 05:16:40;;;;;;;11.68;8.02;;;;;;;18.45;56.97;101458.72;5049519;28;20049;-68
2022/10/05 05:19:21;;;;;;;12.30;7.40;;;;;;;18.43;56.99;101462.44;5049808;28;20049;-68
2022/10/05 05:22:30;;;;;;;9.85;7.47;;;;;;;18.46;56.86;101463.16;5049523;28;20049;-68
2022/10/05 05:25:30;;;;;;;9.65;7.53;;;;;;;18.50;56.77;101465.44;5047818;28;20115;-68
2022/10/05 05:28:22;;;;;;;12.02;7.90;;;;;;;18.53;56.77;101469.72;5033192;28;20488;-68
2022/10/05 05:30:55;;;;;;;11.43;7.40;;;;;;;18.52;56.99;101466.16;5037721;28;20045;-67
2022/10/05 05:33:39;;;;;;;10.77;7.38;;;;;;;18.49;56.61;101460.16;5049498;28;20049;-68
2022/10/05 05:36:21;;;;;;;10.70;7.28;;;;;;;18.47;56.88;101457.56;5051325;28;20044;-69
2022/10/05 05:39:22;;;;;;;9.40;7.00;;;;;;;18.44;56.74;101452.44;5049548;28;20481;-68
2022/10/05 05:42:01;;;;;;;11.00;7.63;;;;;;;18.41;56.67;101456.28;5048370;28;20139;-68
2022/10/05 05:44:43;;;;;;;10.77;7.22;;;;;;;18.36;57.17;101455.88;5051919;28;20045;-68
2022/10/05 05:47:28;;;;;;;9.15;7.00;;;;;;;18.33;56.91;101449.88;5053479;28;20468;-68
2022/10/05 05:50:03;;;;;;;9.45;7.15;;;;;;;18.31;57.05;101451.88;5053178;28;20091;-66
2022/10/05 05:52:46;;;;;;;9.63;6.57;;;;;;;18.28;57.16;101447.56;5052737;28;20048;-68
2022/10/05 05:55:23;;;;;;;14.63;7.85;;;;;;;18.27;57.08;101451.28;5055030;28;20037;-70
2022/10/05 05:58:11;;;;;;;9.30;7.13;;;;;;;18.25;57.25;101449.72;5053619;28;20102;-70
2022/10/05 06:00:48;;;;;;;9.82;7.25;;;;;;;18.26;57.08;101443.28;5053326;28;20071;-71
2022/10/05 06:03:22;;;;;;;11.68;7.43;;;;;;;18.25;56.98;101442.44;5053254;28;20049;-70
2022/10/05 06:05:56;;;;;;;9.27;6.68;;;;;;;18.26;57.21;101443.28;5053321;28;20499;-70
2022/10/05 06:08:33;;;;;;;8.63;6.68;;;;;;;18.28;57.29;101441.28;5053326;28;20068;-70
2022/10/05 06:11:08;;;;;;;10.98;6.95;;;;;;;18.31;57.37;101435.56;5053227;28;20135;-70
2022/10/05 06:13:39;;;;;;;10.65;6.72;;;;;;;18.32;56.97;101440.84;5053008;28;20083;-70
2022/10/05 06:16:26;;;;;;;10.03;6.57;;;;;;;18.34;57.04;101446.13;5053198;28;20488;-70
2022/10/05 06:18:58;;;;;;;8.70;5.95;;;;;;;18.34;57.30;101441.56;5053238;28;20048;-70
2022/10/05 06:21:34;;;;;;;8.43;5.90;;;;;;;18.34;57.35;101444.28;5052731;28;20048;-70
2022/10/05 06:24:19;;;;;;;10.25;6.40;;;;;;;18.32;57.11;101438.13;5053205;28;20140;-70
2022/10/05 06:27:05;;;;;;;9.68;6.35;;;;;;;18.34;57.16;101446.13;5053911;28;20437;-70
2022/10/05 06:30:02;;;;;;;8.43;6.30;;;;;;;18.36;57.36;101449.56;5087475;28;20044;-70
2022/10/05 06:32:44;;;;;;;8.38;5.80;;;;;;;18.38;57.45;101448.41;5053741;28;20449;-70
2022/10/05 06:35:22;;;;;;;7.35;5.57;;;;;;;18.38;56.97;101447.56;5052914;28;20041;-70
2022/10/05 06:38:07;;;;;;;7.00;5.75;;;;;;;18.38;57.21;101453.88;5052997;28;20048;-70
2022/10/05 06:41:05;;;;;;;7.63;5.90;;;;;;;18.38;57.40;101442.97;5052621;28;20075;-71
2022/10/05 06:43:59;;;;;;;7.25;5.18;;;;;;;18.39;57.19;101433.81;5052594;28;20086;-70
2022/10/05 06:46:52;;;;;;;7.20;5.35;;;;;;;18.42;57.44;101440.84;5054153;28;20526;-72
2022/10/05 06:49:44;;;;;;;6.38;5.03;;;;;;;18.47;57.14;101440.41;5053025;28;20048;-71
2022/10/05 06:52:56;;;;;;;7.90;5.80;;;;;;;18.52;57.31;101440.81;5051431;28;20116;-73
2022/10/05 06:55:42;;;;;;;7.30;5.35;;;;;;;18.53;57.11;101440.66;5051801;28;20517;-72
2022/10/05 06:58:27;;;;;;;7.85;5.22;;;;;;;18.53;56.96;101439.81;5052014;28;20049;-72
2022/10/05 07:01:01;;;;;;;7.97;5.35;;;;;;;18.54;57.37;101442.38;5053368;28;20094;-73
2022/10/05 07:04:12;;;;;;;8.60;5.18;;;;;;;18.56;57.27;101440.38;5051902;28;20123;-73
2022/10/05 07:06:44;;;;;;;5.82;4.80;;;;;;;18.60;57.13;101436.41;5051934;28;20037;-73
2022/10/05 07:09:23;;;;;;;7.38;5.10;;;;;;;18.63;57.20;101447.00;5035042;28;20041;-73
2022/10/05 07:12:13;;;;;;;6.78;4.90;;;;;;;18.67;56.92;101442.13;5050898;28;20514;-72
2022/10/05 07:15:18;;;;;;;8.18;5.53;;;;;;;18.73;56.98;101436.09;5051850;28;20557;-73
2022/10/05 07:18:03;;;;;;;7.57;5.53;;;;;;;18.77;57.24;101442.97;5035103;28;20037;-72
2022/10/05 07:21:07;;;;;;;8.48;5.50;;;;;;;18.78;56.94;101443.81;5052370;28;20041;-73
2022/10/05 07:24:18;;;;;;;8.05;5.47;;;;;;;18.79;56.85;101443.69;5052579;28;20049;-72
2022/10/05 07:26:54;;;;;;;9.93;5.68;;;;;;;18.84;57.26;101448.69;5051399;28;20045;-74
2022/10/05 07:29:30;;;;;;;;;;;;;;;18.90;56.89;101450.81;5051729;28;20064;-73
2022/10/05 07:32:10;;;;;;;5.57;4.82;;;;;;;18.96;57.00;101453.78;5045462;28;19928;-73
2022/10/05 07:34:56;;;;;;;7.57;5.63;;;;;;;19.00;56.70;101452.50;5051148;28;20156;-72
2022/10/05 07:37:53;;;;;;;7.72;4.95;;;;;;;19.04;57.05;101456.63;5051312;28;20041;-72
2022/10/05 07:40:40;;;;;;;7.22;4.53;;;;;;;19.07;56.63;101454.63;5050495;28;20298;-72
2022/10/05 07:43:46;;;;;;;6.18;4.65;;;;;;;19.11;56.66;101459.59;5047671;28;20040;-76
2022/10/05 07:46:55;;;;;;;5.00;4.50;;;;;;;19.16;56.78;101451.00;5051132;28;20135;-73
2022/10/05 07:49:36;;;;;;;6.03;4.78;;;;;;;19.22;56.77;101455.84;5051173;28;20045;-73
2022/10/05 07:52:10;;;;;;;7.57;4.20;;;;;;;19.24;56.41;101451.94;5050576;28;20044;-73
2022/10/05 07:55:12;;;;;;;7.40;3.95;;;;;;;19.27;56.52;101450.78;5051239;28;20127;-72
2022/10/05 07:57:54;;;;;;;4.97;4.10;;;;;;;19.32;56.76;101460.25;5050963;28;20320;-72
2022/10/05 08:00:23;;;;;;;6.72;4.40;;;;;;;19.36;56.52;101458.09;5050936;28;20079;-73
2022/10/05 08:03:03;;;;;;;4.97;3.90;;;;;;;19.38;56.22;101460.66;5051921;28;20052;-73
2022/10/05 08:05:34;;;;;;;6.32;4.20;;;;;;;19.42;56.39;101465.66;5052260;28;20033;-72
2022/10/05 08:08:14;;;;;;;6.88;4.00;;;;;;;19.46;56.30;101448.00;5051567;28;20040;-72
2022/10/05 08:11:12;;;;;;;5.75;4.00;;;;;;;19.50;56.35;101459.44;5050431;28;20436;-73
2022/10/05 08:13:56;;;;;;;5.05;3.83;;;;;;;19.54;56.39;101458.16;5051923;28;20049;-72
2022/10/05 08:16:27;;;;;;;5.28;4.20;;;;;;;19.58;56.33;101460.44;5051902;28;20487;-73
2022/10/05 08:18:56;;;;;;;5.00;3.83;;;;;;;19.60;56.07;101452.97;5051480;28;20037;-70
2022/10/05 08:21:30;;;;;;;6.40;3.60;;;;;;;19.64;56.12;101442.63;5050980;28;20049;-70
2022/10/05 08:24:46;;;;;;;5.33;4.20;;;;;;;19.70;55.96;101447.47;5050697;28;20040;-70
2022/10/05 08:27:16;;;;;;;5.70;4.00;;;;;;;19.77;56.04;101431.34;5048726;28;20446;-70
2022/10/05 08:30:00;;;;;;;5.50;3.90;;;;;;;19.79;55.97;101426.59;5050940;28;20252;-70
2022/10/05 08:32:33;;;;;;;4.93;4.25;;;;;;;19.83;55.96;101430.72;5051414;28;20063;-70
2022/10/05 08:35:38;;;;;;;4.82;3.47;;;;;;;19.87;55.99;101433.00;5051631;28;20045;-71
2022/10/05 08:38:15;;;;;;;5.57;3.70;;;;;;;19.97;56.35;101435.63;5050751;28;20056;-70
2022/10/05 08:41:05;;;;;;;6.10;3.75;;;;;;;20.05;56.25;101416.63;5050113;28;20040;-69
2022/10/05 08:43:53;;;;;;;5.90;3.58;;;;;;;20.12;56.04;101420.47;5050898;28;20087;-69
2022/10/05 08:46:45;;;;;;;6.95;3.47;;;;;;;20.17;55.60;101422.72;5051408;28;20037;-70
2022/10/05 08:49:37;;;;;;;8.55;3.70;;;;;;;20.20;55.86;101411.50;5051377;28;20037;-73
2022/10/05 08:52:21;;;;;;;5.78;3.00;;;;;;;20.23;55.66;101420.22;5048876;28;20384;-73
2022/10/05 08:55:21;;;;;;;5.75;3.55;;;;;;;20.27;55.76;101415.31;5030884;28;20060;-73
2022/10/05 08:58:20;;;;;;;6.25;3.40;;;;;;;20.33;55.50;101422.00;5031300;28;20088;-73
2022/10/05 09:00:52;;;;;;;6.38;3.58;;;;;;;20.37;55.42;101410.63;5010109;28;20057;-73
2022/10/05 09:03:57;;;;;;;4.80;3.80;;;;;;;20.39;55.72;101411.34;5043817;28;20099;-73
2022/10/05 09:06:42;;;;;;;5.30;3.40;;;;;;;20.46;55.50;101408.84;5030891;28;20068;-73
2022/10/05 09:09:27;;;;;;;5.45;3.70;;;;;;;20.53;55.19;101407.19;5030978;28;20042;-72
2022/10/05 09:12:20;;;;;;;4.83;3.53;;;;;;;20.57;55.21;101400.38;5030792;28;20037;-73
2022/10/05 09:15:20;;;;;;;5.50;3.72;;;;;;;20.62;55.43;101398.03;5037189;28;20033;-73
2022/10/05 09:18:19;;;;;;;4.78;3.53;;;;;;;20.68;55.16;101400.13;5051831;28;20045;-72
2022/10/05 09:20:54;;;;;;;3.22;2.92;;;;;;;20.76;55.21;101399.31;5053692;28;20045;-71
2022/10/05 09:23:37;;;;;;;4.93;3.13;;;;;;;20.82;55.06;101401.44;5054625;28;20041;-72
2022/10/05 09:26:44;;;;;;;3.65;2.75;;;;;;;20.89;54.87;101395.16;5054674;28;20522;-73
2022/10/05 09:29:34;;;;;;;5.85;3.33;;;;;;;20.97;55.12;101398.94;5045895;28;20072;-73
2022/10/05 09:32:18;;;;;;;5.63;3.83;;;;;;;21.03;55.08;101395.56;5054557;28;20376;-73
2022/10/05 09:35:07;;;;;;;6.97;3.33;;;;;;;21.08;54.95;101398.66;5052757;28;20064;-72
2022/10/05 09:37:52;;;;;;;6.00;3.58;;;;;;;21.10;54.77;101394.72;5054752;28;20083;-73
2022/10/05 09:40:54;;;;;;;6.43;3.60;;;;;;;21.13;54.48;101391.69;5054497;28;20045;-73
2022/10/05 09:44:03;;;;;;;4.85;3.20;;;;;;;21.16;54.44;101396.81;5054414;28;20118;-73
2022/10/05 09:47:02;;;;;;;3.92;3.45;;;;;;;21.18;54.50;101388.44;5053989;28;20506;-73
2022/10/05 09:49:51;;;;;;;4.63;3.63;;;;;;;21.23;54.51;101388.84;5054617;28;20045;-73
2022/10/05 09:52:32;;;;;;;8.68;3.42;;;;;;;21.27;54.35;101389.38;5054084;28;20450;-73
2022/10/05 09:55:33;;;;;;;4.00;2.92;;;;;;;21.35;54.49;101394.84;5054052;28;20041;-73
2022/10/05 09:58:29;;;;;;;6.32;3.42;;;;;;;21.41;54.22;101375.06;5053777;28;20049;-73
2022/10/05 10:01:05;;;;;;;;;;;;;;;21.47;54.44;101378.00;5054465;28;20103;-72
2022/10/05 10:03:57;;;;;;;3.47;2.90;;;;;;;21.53;54.26;101382.78;5053418;28;19920;-74
2022/10/05 10:07:03;;;;;;;4.68;3.33;;;;;;;21.56;54.10;101379.75;5051077;28;20090;-72
2022/10/05 10:09:52;;;;;;;4.25;3.17;;;;;;;21.61;54.28;101373.78;5054081;28;20045;-73
2022/10/05 10:12:27;;;;;;;4.20;2.67;;;;;;;21.64;53.97;101367.97;5053856;28;20049;-74
2022/10/05 10:15:06;;;;;;;5.47;3.10;;;;;;;21.65;54.00;101366.09;5052031;28;20045;-74
2022/10/05 10:17:54;;;;;;;6.32;2.95;;;;;;;21.70;53.90;101355.50;5052564;28;20044;-73
2022/10/05 10:20:51;;;;;;;7.20;2.78;;;;;;;21.74;53.93;101354.16;5053259;28;20041;-74
2022/10/05 10:23:58;;;;;;;3.58;2.75;;;;;;;21.80;53.53;101353.47;5053411;28;20049;-74
2022/10/05 10:26:47;;;;;;;4.55;3.20;;;;;;;21.88;53.63;101348.00;5053073;28;20194;-74
2022/10/05 10:29:34;;;;;;;3.60;2.55;;;;;;;21.96;53.83;101353.47;5053056;28;20045;-73
2022/10/05 10:32:16;;;;;;;3.83;2.70;;;;;;;22.07;53.68;101341.38;5051755;28;20372;-74
2022/10/05 10:35:20;;;;;;;4.47;2.80;;;;;;;22.17;53.48;101334.69;5053192;28;20552;-73
2022/10/05 10:38:11;;;;;;;3.20;2.30;;;;;;;22.28;53.25;101333.47;5053572;28;20041;-73
2022/10/05 10:40:51;;;;;;;3.08;2.35;;;;;;;22.37;53.34;101329.72;5053207;28;20041;-74
2022/10/05 10:43:38;;;;;;;3.30;2.63;;;;;;;22.45;53.07;101334.34;5052508;28;20037;-74
2022/10/05 10:46:33;;;;;;;3.10;2.22;;;;;;;22.51;52.80;101326.28;5053031;28;20107;-74
2022/10/05 10:49:05;;;;;;;4.73;3.00;;;;;;;22.61;52.75;101319.75;5053256;28;20427;-74
2022/10/05 10:51:46;;;;;;;3.90;2.75;;;;;;;22.70;52.67;101318.69;5052506;28;20041;-74
2022/10/05 10:54:33;;;;;;;4.60;2.40;;;;;;;22.78;52.51;101322.25;5054314;28;20086;-76
2022/10/05 10:57:15;;;;;;;3.63;2.85;;;;;;;22.87;52.28;101319.50;5054462;28;20487;-74
2022/10/05 10:59:42;;;;;;;5.57;2.35;;;;;;;22.90;51.99;101319.16;5054367;28;20049;-74
2022/10/05 11:02:32;;;;;;;4.10;2.42;;;;;;;22.94;51.92;101318.63;5054220;28;20033;-74
2022/10/05 11:05:22;;;;;;;3.83;2.05;;;;;;;22.99;51.84;101313.47;5036968;28;20056;-74
2022/10/05 11:07:56;;;;;;;3.35;2.40;;;;;;;23.02;51.64;101296.66;5045996;28;20053;-73
2022/10/05 11:10:41;;;;;;;5.82;2.60;;;;;;;23.05;51.61;101298.22;5054054;28;20040;-74
2022/10/05 11:13:14;;;;;;;3.53;2.03;;;;;;;23.10;51.52;101302.13;5055145;28;20041;-72
2022/10/05 11:16:01;;;;;;;3.38;2.10;;;;;;;23.10;51.27;101298.53;5055298;28;20064;-74
2022/10/05 11:18:59;;;;;;;2.42;2.00;;;;;;;23.17;51.35;101291.31;5053714;28;20086;-73
2022/10/05 11:21:35;;;;;;;4.82;1.80;;;;;;;23.24;51.08;101283.22;5055024;28;20037;-72
2022/10/05 11:24:37;;;;;;;3.65;1.90;;;;;;;23.29;50.90;101287.13;5055841;28;20045;-72
2022/10/05 11:27:32;;;;;;;2.72;2.00;;;;;;;23.38;51.07;101280.53;5055504;28;20044;-73
2022/10/05 11:30:35;;;;;;;3.50;1.83;;;;;;;23.51;51.06;101281.81;5054158;28;20041;-72
2022/10/05 11:33:28;;;;;;;2.70;2.00;;;;;;;23.58;50.87;101280.09;5034183;28;20107;-71
2022/10/05 11:36:25;;;;;;;2.95;2.10;;;;;;;23.64;50.51;101277.47;5012190;28;20397;-72
2022/10/05 11:39:10;;;;;;;3.22;1.52;;;;;;;23.68;50.41;101270.56;5044293;28;20044;-72
2022/10/05 11:42:10;;;;;;;4.63;1.80;;;;;;;23.77;50.47;101265.88;5051223;28;20102;-73
2022/10/05 11:45:10;;;;;;;2.85;1.85;;;;;;;23.87;50.43;101263.75;5054285;28;20045;-72
2022/10/05 11:48:10;;;;;;;4.32;1.90;;;;;;;23.94;50.31;101252.88;5053193;28;20037;-70
2022/10/05 11:50:37;;;;;;;2.92;2.00;;;;;;;24.02;50.24;101250.91;5033272;28;20042;-70
2022/10/05 11:53:17;;;;;;;2.95;2.05;;;;;;;24.10;49.81;101236.25;5033326;28;20054;-73
2022/10/05 11:56:04;;;;;;;2.47;1.70;;;;;;;24.19;50.06;101248.00;5032524;28;20068;-72
2022/10/05 11:58:38;;;;;;;5.05;1.70;;;;;;;24.30;49.76;101234.69;5050860;28;20083;-73
2022/10/05 12:01:11;;;;;;;2.75;1.70;;;;;;;24.37;49.48;101235.63;5052062;28;20115;-71
2022/10/05 12:03:56;;;;;;;3.45;1.73;;;;;;;24.40;49.49;101231.66;5051473;28;20045;-75
2022/10/05 12:06:48;;;;;;;2.33;1.70;;;;;;;24.46;48.98;101219.91;5052409;28;20063;-74
2022/10/05 12:12:58;;;;;;;3.38;2.22;;;;;;;24.68;48.91;101205.25;5050971;28;20052;-75
2022/10/05 12:15:33;;;;;;;4.38;1.90;;;;;;;24.81;48.66;101203.69;5054092;28;20068;-72
2022/10/05 12:18:15;;;;;;;3.55;1.88;;;;;;;24.86;48.43;101201.22;5053579;28;20041;-69
2022/10/05 12:21:26;;;;;;;5.35;1.70;;;;;;;24.95;48.29;101186.31;5054146;28;20103;-69
2022/10/05 12:24:05;;;;;;;4.68;1.67;;;;;;;25.05;48.16;101189.63;5048097;28;20126;-70
2022/10/05 12:26:43;;;;;;;5.57;2.08;;;;;;;25.12;47.97;101185.03;5053745;28;20057;-70
2022/10/05 12:29:15;;;;;;;2.05;1.50;;;;;;;25.17;47.82;101182.56;5054625;28;20048;-69
2022/10/05 12:31:53;;;;;;;3.58;1.60;;;;;;;25.26;47.66;101178.63;5053169;28;20044;-70
2022/10/05 12:34:51;;;;;;;3.75;1.75;;;;;;;25.39;48.02;101182.59;5054960;28;20045;-70
2022/10/05 12:37:39;;;;;;;2.65;1.40;;;;;;;25.55;47.86;101176.81;5051833;28;20067;-70
2022/10/05 12:40:24;;;;;;;3.00;1.90;;;;;;;25.70;47.18;101174.84;5051726;28;20037;-70
2022/10/05 12:43:03;;;;;;;2.00;1.40;;;;;;;25.83;47.27;101169.44;5050963;28;20545;-70
2022/10/05 12:46:00;;;;;;;2.20;1.55;;;;;;;25.91;46.82;101163.78;5053351;28;20056;-69